Flight Track Log - Related Links

Times and Time Zones

All times are in EDT time to prevent confusion due to time zone crossing. See the KAP5 flight status page for this flight to view local times or setup timezone preferences in your user account.

Time Position Orientation Groundspeed Altitude Reporting Facility
EDT Latitude Longitude Course Direction KTS MPH feet Rate Location/Type
Fri 08:59:00 41.4059 -70.1752 331° Northwest  Level FlightAware Approximate
Fri 09:00:00 41.4249 -70.1915 323° Northwest  Level FlightAware Approximate
Fri 09:01:00 41.4482 -70.2149 323° Northwest  Level FlightAware Approximate
Fri 09:02:00 41.4734 -70.2347 330° Northwest  Level FlightAware Approximate
Fri 09:03:00 41.4987 -70.2543 330° Northwest  Level FlightAware Approximate
Fri 09:04:00 41.5240 -70.2738 330° Northwest  Level FlightAware Approximate
Fri 09:05:00 41.5493 -70.2934 330° Northwest  Level FlightAware Approximate
Fri 09:06:00 41.5746 -70.3130 330° Northwest  Level FlightAware Approximate
Fri 09:07:00 41.5999 -70.3326 330° Northwest  Level FlightAware Approximate
Fri 09:08:00 41.6252 -70.3522 330° Northwest  Level FlightAware Approximate
Fri 09:09:00 41.6505 -70.3719 330° Northwest  Level FlightAware Approximate
Fri 09:10:00 41.6758 -70.3915 330° Northwest  Level FlightAware Approximate
Fri 09:10:43 41.7500 -70.5667 330° Northwest 160 184 4,000  Level KA90
Fri 09:11:00 41.7010 -70.4112 330° Northwest  Level FlightAware Approximate
Fri 09:12:00 41.7263 -70.4309 330° Northwest  Level FlightAware Approximate
Fri 09:12:01 41.8000 -70.6000 334° Northwest 160 184 4,000  Level KA90
Fri 09:13:00 41.7516 -70.4506 330° Northwest  Level FlightAware Approximate
Fri 09:13:07 41.8500 -70.6167 346° North 164 189 4,000  Level KA90
Fri 09:14:00 41.7769 -70.4703 330° Northwest  Level FlightAware Approximate
Fri 09:14:01 41.9000 -70.6167 360° North 164 189 4,000  Level KA90
Fri 09:15:00 41.8021 -70.4901 330° Northwest  Level FlightAware Approximate
Fri 09:15:01 41.9333 -70.6167 360° North 165 190 4,000  Level KA90
Fri 09:16:00 41.8274 -70.5098 330° Northwest  Level FlightAware Approximate
Fri 09:16:01 41.9833 -70.6167 360° North 164 189 4,000  Level KA90
Fri 09:17:01 42.0333 -70.6333 346° North 165 190 4,000  Level KA90
Fri 09:18:07 42.0833 -70.6333 360° North 167 192 4,000 -95 Level KA90
Fri 09:19:07 42.1333 -70.6500 346° North 175 201 3,800 -421 Descending KA90
Fri 09:20:01 42.1667 -70.6667 340° North 182 209 3,200 -400 Descending KA90
Fri 09:21:07 42.2333 -70.6833 350° North 175 201 3,000 -99 Descending KA90
Fri 09:22:02 42.2667 -70.7000 340° North 162 186 3,000  Level KA90
Fri 09:23:01 42.3167 -70.7167 346° North 159 183 3,000  Level KA90
Fri 09:24:01 42.3500 -70.7167 360° North 159 183 3,000 -350 Level KA90
Fri 09:25:01 42.4000 -70.7500 334° Northwest 176 203 2,300 -524 Descending KA90
Fri 09:26:07 42.3833 -70.8167 251° West 171 197 1,900 -286 Descending KA90
Fri 09:27:07 42.3833 -70.8667 270° West 154 177 1,700 -500 Descending KA90
Fri 09:28:07 42.3667 -70.9333 251° West 168 193 900 -800 Descending KA90
Fri 09:30:00 42.3500 -71.0000 279° West  Level FlightAware Approximate
Fri 09:37:00 42.3630 -71.0064 279° West  Level Estimated

Login

Don't have an account? Register now (free) for customized features, flight alerts, and more!